Time;durP1;ratioP1;P1;durP2;ratioP2;P2;SDS_P1;SDS_P2;PMS_P1;PMS_P2;Temp;Humidity;BMP_temperature;BMP_pressure;BME280_temperature;BME280_humidity;BME280_pressure;Samples;Min_cycle;Max_cycle;Signal;HPM_P1;HPM_P2
2022/11/03 00:01:40;;;;;;;47.95;28.33;;;;;;;;;;10030453;28;20057;-73
2022/11/03 00:06:34;;;;;;;46.85;28.90;;;;;;;;;;10029211;28;20060;-73
2022/11/03 00:11:28;;;;;;;48.40;28.88;;;;;;;;;;10029831;28;20521;-74
2022/11/03 00:16:21;;;;;;;50.45;30.23;;;;;;;;;;10029805;28;20108;-74
2022/11/03 00:21:15;;;;;;;46.70;28.85;;;;;;;;;;10029218;28;20083;-74
2022/11/03 00:26:13;;;;;;;49.88;30.00;;;;;;;;;;10028863;28;20053;-74
2022/11/03 00:31:31;;;;;;;57.00;30.83;;;;;;;;;;10028857;28;20460;-74
2022/11/03 00:36:27;;;;;;;59.42;31.42;;;;;;;;;;10017843;28;20046;-73
2022/11/03 00:41:21;;;;;;;54.60;30.52;;;;;;;;;;10028956;28;20132;-73
2022/11/03 00:46:20;;;;;;;60.85;31.60;;;;;;;;;;10027978;28;20141;-74
2022/11/03 00:51:24;;;;;;;57.78;31.35;;;;;;;;;;10028187;28;20057;-74
2022/11/03 00:56:19;;;;;;;65.55;34.65;;;;;;;;;;10027571;28;20054;-74
2022/11/03 01:01:14;;;;;;;63.60;31.65;;;;;;;;;;10027990;28;20508;-73
2022/11/03 01:11:43;;;;;;;56.83;31.17;;;;;;;;;;10026027;28;20046;-74
2022/11/03 01:16:36;;;;;;;61.10;34.27;;;;;;;;;;10027209;28;20065;-74
2022/11/03 01:21:30;;;;;;;62.50;34.22;;;;;;;;;;10025993;28;20058;-73
2022/11/03 01:26:24;;;;;;;62.05;31.45;;;;;;;;;;10025942;28;20496;-74
2022/11/03 01:31:21;;;;;;;67.45;34.90;;;;;;;;;;10026546;28;20532;-74
2022/11/03 01:36:14;;;;;;;59.40;31.13;;;;;;;;;;10025198;28;20060;-74
2022/11/03 01:41:14;;;;;;;69.20;33.90;;;;;;;;;;10025628;28;20073;-74
2022/11/03 01:46:11;;;;;;;;;;;;;;;;;;10026088;28;20045;-72
2022/11/03 01:51:06;;;;;;;86.72;36.13;;;;;;;;;;10024285;28;20316;-73
2022/11/03 01:56:01;;;;;;;79.05;36.78;;;;;;;;;;10024808;28;20057;-74
2022/11/03 02:00:55;;;;;;;69.07;35.20;;;;;;;;;;10023738;28;20046;-74
2022/11/03 02:05:50;;;;;;;60.28;33.17;;;;;;;;;;10025014;28;20054;-72
2022/11/03 02:10:46;;;;;;;71.70;35.05;;;;;;;;;;10025567;28;20108;-72
2022/11/03 02:15:39;;;;;;;73.07;37.78;;;;;;;;;;10024533;28;20460;-72
2022/11/03 02:20:34;;;;;;;73.93;35.15;;;;;;;;;;10025626;28;20509;-72
2022/11/03 02:25:39;;;;;;;74.65;36.78;;;;;;;;;;10025312;28;20054;-73
2022/11/03 02:30:55;;;;;;;74.68;36.85;;;;;;;;;;10025834;28;20467;-72
2022/11/03 02:35:54;;;;;;;69.53;35.20;;;;;;;;;;9997750;28;20058;-72
2022/11/03 02:40:52;;;;;;;75.10;36.53;;;;;;;;;;10032284;28;20057;-72
2022/11/03 02:45:46;;;;;;;75.47;36.35;;;;;;;;;;10032353;28;20493;-72
2022/11/03 02:50:39;;;;;;;87.20;38.72;;;;;;;;;;10033297;28;20501;-72
2022/11/03 02:55:35;;;;;;;93.45;42.83;;;;;;;;;;10032559;28;20556;-72
2022/11/03 03:00:30;;;;;;;96.65;45.35;;;;;;;;;;10031231;28;20050;-73
2022/11/03 03:05:27;;;;;;;110.32;43.30;;;;;;;;;;10030842;28;20053;-72
2022/11/03 03:10:23;;;;;;;104.35;47.03;;;;;;;;;;10031944;28;20104;-72
2022/11/03 03:15:17;;;;;;;102.97;44.85;;;;;;;;;;10030611;28;20066;-75
2022/11/03 03:20:27;;;;;;;99.78;44.78;;;;;;;;;;10030362;28;20038;-72
2022/11/03 03:25:33;;;;;;;104.80;45.13;;;;;;;;;;10030998;28;20472;-72
2022/11/03 03:30:29;;;;;;;109.90;46.70;;;;;;;;;;10029562;28;20054;-73
2022/11/03 03:35:24;;;;;;;105.57;44.88;;;;;;;;;;10030955;28;20058;-73
2022/11/03 03:40:22;;;;;;;120.45;44.75;;;;;;;;;;10029908;28;20493;-74
2022/11/03 03:45:16;;;;;;;105.73;42.47;;;;;;;;;;10030015;28;20108;-74
2022/11/03 03:50:09;;;;;;;115.07;45.88;;;;;;;;;;10025830;28;20046;-73
2022/11/03 03:55:03;;;;;;;113.93;46.42;;;;;;;;;;10030142;28;20401;-73
2022/11/03 03:59:57;;;;;;;99.05;43.25;;;;;;;;;;10029668;28;20386;-73
2022/11/03 04:04:51;;;;;;;104.35;43.50;;;;;;;;;;10029088;28;20465;-74
2022/11/03 04:09:45;;;;;;;104.07;45.85;;;;;;;;;;10029222;28;20049;-74
2022/11/03 04:25:03;;;;;;;99.07;41.83;;;;;;;;;;10029702;28;20112;-74
2022/11/03 04:30:07;;;;;;;105.97;46.42;;;;;;;;;;10028830;28;20068;-74
2022/11/03 04:35:01;;;;;;;102.28;45.20;;;;;;;;;;10028998;28;20066;-74
2022/11/03 04:40:01;;;;;;;125.47;48.80;;;;;;;;;;10021302;28;20057;-74
2022/11/03 04:44:55;;;;;;;131.73;48.90;;;;;;;;;;10028143;28;20104;-73
2022/11/03 04:49:50;;;;;;;107.40;45.65;;;;;;;;;;10028043;28;20390;-73
2022/11/03 04:54:44;;;;;;;118.88;49.00;;;;;;;;;;10027730;28;20521;-73
2022/11/03 04:59:39;;;;;;;115.93;47.38;;;;;;;;;;10026973;28;20054;-73
2022/11/03 05:04:32;;;;;;;105.40;46.38;;;;;;;;;;10026776;28;20149;-73
2022/11/03 05:09:29;;;;;;;100.40;44.05;;;;;;;;;;10027633;28;20077;-73
2022/11/03 05:14:28;;;;;;;98.70;43.13;;;;;;;;;;10028108;28;20073;-74
2022/11/03 05:19:27;;;;;;;116.22;46.78;;;;;;;;;;10027419;28;20053;-73
2022/11/03 05:24:24;;;;;;;96.68;45.65;;;;;;;;;;10025676;28;20058;-74
2022/11/03 05:29:19;;;;;;;101.43;46.20;;;;;;;;;;10026838;28;20088;-73
2022/11/03 05:34:32;;;;;;;125.63;51.45;;;;;;;;;;10019013;28;20445;-70
2022/11/03 05:39:30;;;;;;;131.07;47.95;;;;;;;;;;10015972;28;20117;-73
2022/11/03 05:44:27;;;;;;;105.43;44.43;;;;;;;;;;10011490;28;20054;-71
2022/11/03 05:49:21;;;;;;;99.70;42.60;;;;;;;;;;10015212;28;20930;-70
2022/11/03 05:54:25;;;;;;;88.00;37.85;;;;;;;;;;10015939;28;20058;-71
2022/11/03 05:59:22;;;;;;;76.28;38.58;;;;;;;;;;10012402;28;20544;-72
2022/11/03 06:04:27;;;;;;;88.78;39.08;;;;;;;;;;10033309;28;20050;-72
2022/11/03 06:09:23;;;;;;;85.93;37.90;;;;;;;;;;10015921;28;20477;-72
2022/11/03 06:14:19;;;;;;;89.45;39.95;;;;;;;;;;10016244;28;20042;-72
2022/11/03 06:19:35;;;;;;;96.03;44.20;;;;;;;;;;10028589;28;20444;-71
2022/11/03 06:24:31;;;;;;;86.53;40.53;;;;;;;;;;10014620;28;20403;-70
2022/11/03 06:29:24;;;;;;;85.20;38.15;;;;;;;;;;10010614;28;20065;-78
2022/11/03 06:34:37;;;;;;;74.40;36.70;;;;;;;;;;10013208;28;20141;-70
2022/11/03 06:39:30;;;;;;;76.47;36.85;;;;;;;;;;10015400;28;20057;-71
2022/11/03 06:44:29;;;;;;;74.22;36.45;;;;;;;;;;10013428;28;20069;-72
2022/11/03 06:49:29;;;;;;;83.75;36.53;;;;;;;;;;10015481;28;20061;-72
2022/11/03 06:54:23;;;;;;;67.85;33.38;;;;;;;;;;10014797;28;20050;-71
2022/11/03 06:59:18;;;;;;;67.95;34.22;;;;;;;;;;10015867;28;20069;-72
2022/11/03 07:04:18;;;;;;;64.18;30.98;;;;;;;;;;10016166;28;20068;-72
2022/11/03 07:09:35;;;;;;;66.90;33.90;;;;;;;;;;10022043;28;20046;-72
2022/11/03 07:14:32;;;;;;;61.17;29.40;;;;;;;;;;10018624;28;20477;-72
2022/11/03 07:19:34;;;;;;;65.03;31.45;;;;;;;;;;10022301;28;20053;-72
2022/11/03 07:24:33;;;;;;;61.13;31.55;;;;;;;;;;10025969;28;20049;-72
2022/11/03 07:29:28;;;;;;;63.40;33.88;;;;;;;;;;10028591;28;20100;-72
2022/11/03 07:34:24;;;;;;;53.25;28.25;;;;;;;;;;10026331;28;20076;-72
2022/11/03 07:39:19;;;;;;;62.95;29.35;;;;;;;;;;10028323;28;20056;-72
2022/11/03 07:44:16;;;;;;;52.20;26.92;;;;;;;;;;10027140;28;20053;-72
2022/11/03 07:49:21;;;;;;;49.05;27.20;;;;;;;;;;10023486;28;20145;-72
2022/11/03 07:54:31;;;;;;;46.53;26.80;;;;;;;;;;10030390;28;20058;-72
2022/11/03 07:59:36;;;;;;;48.78;25.85;;;;;;;;;;10029179;28;20034;-72
2022/11/03 08:04:35;;;;;;;48.83;27.05;;;;;;;;;;10028339;28;20452;-72
2022/11/03 08:09:29;;;;;;;56.08;27.83;;;;;;;;;;10020504;28;20046;-72
2022/11/03 08:14:23;;;;;;;54.35;29.80;;;;;;;;;;10018554;28;20515;-73
2022/11/03 08:19:16;;;;;;;57.05;31.65;;;;;;;;;;10029526;28;20460;-72
2022/11/03 08:24:10;;;;;;;54.92;29.65;;;;;;;;;;10028188;28;20112;-71
2022/11/03 08:29:03;;;;;;;55.83;28.02;;;;;;;;;;10028347;28;20073;-72
2022/11/03 08:33:57;;;;;;;59.97;31.25;;;;;;;;;;10027912;28;20054;-71
2022/11/03 08:38:52;;;;;;;67.13;33.08;;;;;;;;;;10025825;28;20553;-73
2022/11/03 08:43:45;;;;;;;62.30;32.40;;;;;;;;;;10027826;28;20056;-72
2022/11/03 08:48:38;;;;;;;63.53;31.58;;;;;;;;;;10027134;28;20065;-72
2022/11/03 08:53:33;;;;;;;54.30;30.10;;;;;;;;;;10026690;28;20041;-72
2022/11/03 08:58:27;;;;;;;58.58;30.48;;;;;;;;;;10027636;28;20057;-72
2022/11/03 09:03:21;;;;;;;61.10;31.70;;;;;;;;;;10026005;28;20054;-72
2022/11/03 09:08:14;;;;;;;61.67;29.40;;;;;;;;;;10024101;28;20054;-72
2022/11/03 09:13:27;;;;;;;63.90;31.75;;;;;;;;;;10021490;28;20129;-72
2022/11/03 09:18:21;;;;;;;69.30;35.75;;;;;;;;;;10026342;28;20492;-71
2022/11/03 09:23:15;;;;;;;68.93;33.30;;;;;;;;;;10027305;28;20515;-71
2022/11/03 09:28:07;;;;;;;63.53;34.53;;;;;;;;;;10025405;28;20096;-71
2022/11/03 09:33:02;;;;;;;66.45;36.08;;;;;;;;;;10025022;28;20484;-72
2022/11/03 09:37:56;;;;;;;66.57;36.38;;;;;;;;;;10021389;28;20073;-71
2022/11/03 09:42:50;;;;;;;74.55;35.95;;;;;;;;;;10026179;28;20115;-71
2022/11/03 09:47:46;;;;;;;54.92;30.58;;;;;;;;;;10025182;28;20444;-71
2022/11/03 09:52:39;;;;;;;57.90;31.52;;;;;;;;;;10025679;28;20080;-72
2022/11/03 09:57:33;;;;;;;57.58;31.67;;;;;;;;;;10025662;28;20065;-72
2022/11/03 10:02:30;;;;;;;60.33;32.85;;;;;;;;;;10024680;28;20803;-71
2022/11/03 10:07:26;;;;;;;58.72;33.70;;;;;;;;;;10025005;28;20058;-71
2022/11/03 10:12:20;;;;;;;58.10;31.52;;;;;;;;;;10023973;28;20046;-71
2022/11/03 10:17:25;;;;;;;58.45;30.83;;;;;;;;;;10012201;28;20100;-71
2022/11/03 10:22:19;;;;;;;48.33;28.85;;;;;;;;;;10032879;28;20053;-71
2022/11/03 10:27:24;;;;;;;49.08;28.95;;;;;;;;;;10017673;28;20049;-71
2022/11/03 10:32:28;;;;;;;54.40;31.10;;;;;;;;;;10017090;28;20047;-71
2022/11/03 10:37:25;;;;;;;45.92;26.92;;;;;;;;;;10021226;28;20073;-71
2022/11/03 10:42:29;;;;;;;40.10;26.37;;;;;;;;;;10016494;28;20078;-71
2022/11/03 10:47:34;;;;;;;51.35;27.98;;;;;;;;;;10019353;28;20045;-71
2022/11/03 10:52:29;;;;;;;48.92;28.33;;;;;;;;;;10018691;28;20053;-72
2022/11/03 10:57:23;;;;;;;51.30;27.52;;;;;;;;;;10018077;28;20054;-71
2022/11/03 11:02:22;;;;;;;45.42;25.25;;;;;;;;;;10023227;28;20050;-71
2022/11/03 11:07:20;;;;;;;40.90;25.85;;;;;;;;;;10017452;28;20076;-72
2022/11/03 11:12:24;;;;;;;53.05;30.35;;;;;;;;;;10021308;28;20078;-70
2022/11/03 11:17:42;;;;;;;43.72;26.13;;;;;;;;;;10027846;28;20050;-71
2022/11/03 11:22:35;;;;;;;50.30;26.10;;;;;;;;;;10027753;28;20064;-71
2022/11/03 11:27:34;;;;;;;41.28;23.52;;;;;;;;;;10031093;28;20042;-71
2022/11/03 11:32:49;;;;;;;;;;;;;;;;;;10030987;28;20100;-71
2022/11/03 11:37:42;;;;;;;38.33;23.10;;;;;;;;;;10028877;28;19928;-71
2022/11/03 11:43:05;;;;;;;44.03;22.48;;;;;;;;;;10028313;28;20137;-71
2022/11/03 11:47:58;;;;;;;34.13;19.25;;;;;;;;;;10027826;28;20068;-71
2022/11/03 11:53:06;;;;;;;31.95;19.67;;;;;;;;;;10028060;28;20053;-72
2022/11/03 11:58:01;;;;;;;28.60;19.52;;;;;;;;;;10030712;28;20058;-71
2022/11/03 12:02:55;;;;;;;29.95;17.77;;;;;;;;;;10029525;28;20401;-70
2022/11/03 12:07:49;;;;;;;27.67;16.50;;;;;;;;;;10027356;28;20180;-71
2022/11/03 12:12:44;;;;;;;37.70;18.60;;;;;;;;;;10028527;28;20064;-70
2022/11/03 12:17:37;;;;;;;30.77;19.50;;;;;;;;;;10027129;28;20078;-70
2022/11/03 12:22:41;;;;;;;24.10;16.30;;;;;;;;;;10026281;28;20081;-70
2022/11/03 12:27:34;;;;;;;25.35;16.45;;;;;;;;;;10025056;28;20061;-71
2022/11/03 12:32:27;;;;;;;23.52;17.88;;;;;;;;;;10027166;28;20042;-71
2022/11/03 12:37:27;;;;;;;23.95;17.65;;;;;;;;;;10027237;28;20048;-71
2022/11/03 12:42:21;;;;;;;26.90;18.98;;;;;;;;;;10026266;28;20464;-70
2022/11/03 12:47:15;;;;;;;20.73;17.52;;;;;;;;;;10026235;28;20549;-72
2022/11/03 12:52:11;;;;;;;27.15;17.38;;;;;;;;;;10026830;28;20517;-72
2022/11/03 12:57:05;;;;;;;28.80;18.02;;;;;;;;;;10020121;28;20054;-72
2022/11/03 13:01:58;;;;;;;22.90;17.02;;;;;;;;;;10026956;28;20049;-72
2022/11/03 13:06:52;;;;;;;24.60;17.10;;;;;;;;;;10026659;28;20157;-72
2022/11/03 13:16:57;;;;;;;27.75;19.73;;;;;;;;;;10023206;28;20081;-71
2022/11/03 13:21:51;;;;;;;26.17;16.63;;;;;;;;;;10026383;28;20073;-68
2022/11/03 13:26:45;;;;;;;28.52;18.65;;;;;;;;;;10025363;28;20054;-69
2022/11/03 13:31:39;;;;;;;27.77;17.15;;;;;;;;;;10024563;28;20111;-68
2022/11/03 13:36:33;;;;;;;24.13;17.73;;;;;;;;;;10026186;28;20049;-69
2022/11/03 13:41:27;;;;;;;23.27;18.02;;;;;;;;;;10020176;28;20422;-69
2022/11/03 13:46:21;;;;;;;26.38;18.20;;;;;;;;;;10022159;28;20125;-70
2022/11/03 13:51:17;;;;;;;35.03;20.88;;;;;;;;;;10022241;28;20046;-70
2022/11/03 13:56:10;;;;;;;31.08;20.48;;;;;;;;;;10022239;28;20441;-68
2022/11/03 14:01:13;;;;;;;28.23;19.15;;;;;;;;;;10024398;28;20089;-70
2022/11/03 14:06:08;;;;;;;34.40;22.35;;;;;;;;;;10024810;28;20406;-70
2022/11/03 14:12:29;;;;;;;35.67;22.67;;;;;;;;;;10024063;28;20054;-70
2022/11/03 14:16:14;;;;;;;32.60;22.10;;;;;;;;;;10019391;28;20056;-67
2022/11/03 14:21:08;;;;;;;29.55;22.88;;;;;;;;;;10022753;28;20046;-70
2022/11/03 14:26:01;;;;;;;37.70;23.83;;;;;;;;;;10023517;28;20049;-66
2022/11/03 14:31:15;;;;;;;32.50;22.85;;;;;;;;;;10019486;28;20057;-68
2022/11/03 14:36:09;;;;;;;29.17;22.30;;;;;;;;;;10031316;28;20077;-68
2022/11/03 14:46:17;;;;;;;38.25;27.23;;;;;;;;;;10032149;28;20505;-67
2022/11/03 14:51:11;;;;;;;40.05;25.50;;;;;;;;;;10031099;28;20050;-66
2022/11/03 14:56:04;;;;;;;30.30;24.08;;;;;;;;;;10031045;28;20370;-68
2022/11/03 15:00:58;;;;;;;30.30;24.33;;;;;;;;;;10031497;28;20054;-68
2022/11/03 15:05:54;;;;;;;35.20;25.30;;;;;;;;;;10029298;28;20409;-68
2022/11/03 15:10:49;;;;;;;42.20;25.38;;;;;;;;;;10028178;28;20065;-68
2022/11/03 15:15:42;;;;;;;46.95;30.25;;;;;;;;;;10030428;28;20052;-69
2022/11/03 15:20:36;;;;;;;39.95;28.13;;;;;;;;;;10029625;28;20049;-68
2022/11/03 15:25:31;;;;;;;54.90;37.40;;;;;;;;;;10030533;28;20060;-68
2022/11/03 15:30:27;;;;;;;58.45;36.40;;;;;;;;;;10026245;28;20058;-68
2022/11/03 15:35:22;;;;;;;62.13;39.72;;;;;;;;;;10025996;28;20053;-68
2022/11/03 15:40:16;;;;;;;49.88;34.95;;;;;;;;;;10027171;28;20409;-69
2022/11/03 15:45:11;;;;;;;68.93;40.70;;;;;;;;;;10027009;28;20053;-68
2022/11/03 15:50:07;;;;;;;66.80;40.92;;;;;;;;;;10030062;28;20060;-69
2022/11/03 15:55:01;;;;;;;52.30;34.30;;;;;;;;;;10029193;28;20074;-69
2022/11/03 15:59:55;;;;;;;43.08;30.08;;;;;;;;;;10028069;28;20058;-68
2022/11/03 16:04:50;;;;;;;39.80;28.83;;;;;;;;;;10028733;28;20112;-70
2022/11/03 16:09:43;;;;;;;40.40;26.33;;;;;;;;;;10027585;28;20089;-68
2022/11/03 16:14:36;;;;;;;36.13;24.55;;;;;;;;;;10028560;28;20612;-70
2022/11/03 16:19:29;;;;;;;44.00;24.50;;;;;;;;;;10028769;28;20064;-68
2022/11/03 16:24:24;;;;;;;36.40;25.08;;;;;;;;;;10027592;28;20054;-68
2022/11/03 16:29:27;;;;;;;40.92;24.90;;;;;;;;;;10027251;28;20078;-67
2022/11/03 16:34:21;;;;;;;49.55;25.85;;;;;;;;;;10028351;28;20429;-69
2022/11/03 16:39:16;;;;;;;43.70;26.50;;;;;;;;;;10027758;28;20144;-71
2022/11/03 16:44:09;;;;;;;49.50;27.92;;;;;;;;;;10028404;28;20050;-72
2022/11/03 16:49:03;;;;;;;57.45;31.33;;;;;;;;;;10027072;28;20060;-73
2022/11/03 16:53:58;;;;;;;58.80;32.08;;;;;;;;;;10026271;28;20104;-73
2022/11/03 16:58:52;;;;;;;62.05;32.78;;;;;;;;;;10025486;28;20845;-73
2022/11/03 17:03:46;;;;;;;58.35;31.83;;;;;;;;;;10027021;28;20046;-72
2022/11/03 17:08:40;;;;;;;73.72;36.17;;;;;;;;;;10025984;28;20045;-72
2022/11/03 17:13:50;;;;;;;66.97;35.42;;;;;;;;;;10025653;28;20050;-72
2022/11/03 17:18:44;;;;;;;57.70;31.92;;;;;;;;;;10026262;28;20136;-72
2022/11/03 17:23:48;;;;;;;60.80;30.80;;;;;;;;;;10190965;27;20453;-71
2022/11/03 17:28:42;;;;;;;55.25;29.92;;;;;;;;;;10197871;28;20058;-71
2022/11/03 17:33:37;;;;;;;58.08;31.60;;;;;;;;;;10193482;28;20090;-72
2022/11/03 17:38:30;;;;;;;62.28;29.95;;;;;;;;;;10180178;28;20114;-71
2022/11/03 17:43:29;;;;;;;62.33;31.40;;;;;;;;;;10190260;28;20054;-70
2022/11/03 17:48:38;;;;;;;57.30;30.25;;;;;;;;;;10178838;28;20066;-70
2022/11/03 17:53:33;;;;;;;63.40;31.92;;;;;;;;;;10176960;28;20546;-71
2022/11/03 17:58:32;;;;;;;63.15;33.88;;;;;;;;;;10174371;28;20048;-70
2022/11/03 18:03:27;;;;;;;65.65;35.33;;;;;;;;;;10159898;28;20562;-70
2022/11/03 18:08:20;;;;;;;80.78;34.80;;;;;;;;;;10179335;28;20437;-71
2022/11/03 18:13:20;;;;;;;67.55;35.20;;;;;;;;;;10194038;28;20071;-71
2022/11/03 18:18:29;;;;;;;66.10;34.08;;;;;;;;;;10186704;28;20453;-71
2022/11/03 18:23:29;;;;;;;74.07;34.10;;;;;;;;;;10136171;28;20072;-71
2022/11/03 18:28:23;;;;;;;64.32;32.03;;;;;;;;;;10136697;28;20499;-71
2022/11/03 18:33:25;;;;;;;73.70;33.95;;;;;;;;;;10117554;28;20059;-71
2022/11/03 18:38:22;;;;;;;73.88;36.05;;;;;;;;;;10111055;28;20080;-71
2022/11/03 18:43:17;;;;;;;74.90;35.47;;;;;;;;;;10111642;28;20095;-71
2022/11/03 18:48:18;;;;;;;77.65;38.00;;;;;;;;;;10106749;28;20053;-71
2022/11/03 18:53:13;;;;;;;74.43;37.55;;;;;;;;;;10110118;28;20071;-70
2022/11/03 18:58:18;;;;;;;80.00;37.55;;;;;;;;;;10130648;28;20098;-76
2022/11/03 19:03:17;;;;;;;77.22;37.97;;;;;;;;;;10124138;28;20059;-70
2022/11/03 19:08:31;;;;;;;75.77;36.70;;;;;;;;;;10110056;28;20107;-70
2022/11/03 19:13:37;;;;;;;87.75;36.03;;;;;;;;;;10105431;28;20053;-71
2022/11/03 19:18:33;;;;;;;72.43;38.03;;;;;;;;;;10105761;28;20059;-71
2022/11/03 19:23:27;;;;;;;81.50;37.75;;;;;;;;;;10137599;28;20060;-76
2022/11/03 19:28:21;;;;;;;77.35;38.50;;;;;;;;;;10134837;28;20456;-65
2022/11/03 19:33:20;;;;;;;79.03;37.92;;;;;;;;;;10138645;28;20059;-65
2022/11/03 19:38:15;;;;;;;76.35;37.20;;;;;;;;;;10143557;28;20128;-66
2022/11/03 19:43:09;;;;;;;73.40;36.05;;;;;;;;;;10128265;28;20053;-66
2022/11/03 19:48:06;;;;;;;74.55;35.63;;;;;;;;;;10145766;28;20487;-66
2022/11/03 19:53:23;;;;;;;75.32;35.08;;;;;;;;;;10137014;28;20139;-65
2022/11/03 19:58:19;;;;;;;75.15;35.92;;;;;;;;;;10141209;28;20055;-65
2022/11/03 20:03:13;;;;;;;81.28;37.45;;;;;;;;;;10157994;28;20538;-67
2022/11/03 20:08:09;;;;;;;78.28;35.75;;;;;;;;;;10160306;28;20411;-65
2022/11/03 20:13:02;;;;;;;73.22;35.90;;;;;;;;;;10154158;28;20040;-66
2022/11/03 20:17:58;;;;;;;69.35;35.67;;;;;;;;;;10159497;28;20406;-70
2022/11/03 20:22:58;;;;;;;68.30;33.25;;;;;;;;;;10149838;28;20505;-66
2022/11/03 20:27:55;;;;;;;74.80;33.53;;;;;;;;;;10121999;28;20048;-66
2022/11/03 20:32:49;;;;;;;71.75;35.05;;;;;;;;;;10138430;28;20051;-65
2022/11/03 20:37:44;;;;;;;70.85;34.78;;;;;;;;;;10138890;28;20485;-65
2022/11/03 20:42:38;;;;;;;65.05;33.13;;;;;;;;;;10116652;28;20098;-65
2022/11/03 20:47:32;;;;;;;70.95;34.90;;;;;;;;;;10142632;28;20110;-65
2022/11/03 20:52:25;;;;;;;58.53;32.67;;;;;;;;;;10161232;28;20047;-65
2022/11/03 20:57:19;;;;;;;69.10;36.35;;;;;;;;;;10147717;28;20068;-65
2022/11/03 21:02:12;;;;;;;65.88;35.70;;;;;;;;;;10133137;28;20059;-66
2022/11/03 21:07:08;;;;;;;68.32;38.42;;;;;;;;;;10135154;28;20065;-66
2022/11/03 21:12:01;;;;;;;67.97;38.13;;;;;;;;;;10116915;28;20504;-66
2022/11/03 21:22:18;;;;;;;78.22;42.40;;;;;;;;;;10137167;28;20092;-68
2022/11/03 21:27:31;;;;;;;76.03;42.13;;;;;;;;;;10138009;28;20484;-68
2022/11/03 21:32:26;;;;;;;81.82;43.20;;;;;;;;;;10141198;28;20153;-68
2022/11/03 21:37:19;;;;;;;77.13;42.38;;;;;;;;;;10142688;28;20059;-67
2022/11/03 21:47:26;;;;;;;73.70;42.03;;;;;;;;;;10142636;28;20094;-67
2022/11/03 21:52:30;;;;;;;75.30;41.45;;;;;;;;;;10129525;28;20118;-67
2022/11/03 21:57:23;;;;;;;77.03;43.35;;;;;;;;;;10134343;28;20079;-67
2022/11/03 22:02:18;;;;;;;74.55;43.38;;;;;;;;;;10138697;28;20435;-67
2022/11/03 22:07:11;;;;;;;76.55;44.17;;;;;;;;;;10140391;28;20570;-67
2022/11/03 22:12:09;;;;;;;80.20;44.55;;;;;;;;;;10158674;28;20038;-67
2022/11/03 22:17:02;;;;;;;84.00;45.20;;;;;;;;;;10140891;28;20462;-67
2022/11/03 22:27:06;;;;;;;72.15;41.95;;;;;;;;;;10153444;28;20040;-68
2022/11/03 22:32:00;;;;;;;76.78;42.00;;;;;;;;;;10143289;28;20052;-67
2022/11/03 22:36:55;;;;;;;82.47;45.75;;;;;;;;;;10149065;28;20400;-67
2022/11/03 22:47:01;;;;;;;83.55;46.78;;;;;;;;;;10148425;28;20044;-68
2022/11/03 22:51:55;;;;;;;86.80;48.33;;;;;;;;;;10150170;28;20052;-68
2022/11/03 22:56:50;;;;;;;86.28;48.03;;;;;;;;;;10151330;28;20056;-68
2022/11/03 23:01:43;;;;;;;90.70;47.85;;;;;;;;;;10150969;28;20064;-69
2022/11/03 23:06:39;;;;;;;78.90;44.72;;;;;;;;;;10151192;28;20105;-68
2022/11/03 23:11:32;;;;;;;89.05;47.80;;;;;;;;;;10151594;28;20047;-68
2022/11/03 23:16:28;;;;;;;79.97;47.72;;;;;;;;;;10151764;28;20044;-68
2022/11/03 23:21:21;;;;;;;88.13;48.47;;;;;;;;;;10149900;28;20149;-68
2022/11/03 23:26:15;;;;;;;94.65;48.35;;;;;;;;;;10152056;28;20052;-68
2022/11/03 23:31:09;;;;;;;81.53;48.35;;;;;;;;;;10149813;28;20044;-69
2022/11/03 23:36:28;;;;;;;80.25;46.35;;;;;;;;;;10150664;28;20053;-69
2022/11/03 23:41:26;;;;;;;76.93;45.60;;;;;;;;;;10148618;28;20056;-68
2022/11/03 23:51:35;;;;;;;79.55;44.45;;;;;;;;;;10151841;28;20487;-68
